Terminal Aerodrome Forecast
Issued by NWS

Home | Current Version | Previous Version | Text Only | Print | Product List | Glossary On
Versions: 1 2 3 4 5 6 7 8 9 10 11 12 13 14 15 16 17 18 19 20 21 22 23 24 25 26
000
FTUS44 KFWD 300900 AAA
TAFAFW
TAF AMD
KAFW 300922Z 3009/3106 10004KT P6SM SCT150 BKN180
     FM301100 16009KT P6SM VCSH SCT060 OVC120
     FM301600 16010KT P6SM BKN080
     FM302100 15014KT P6SM VCTS SCT080CB OVC120
     FM310200 14010KT P6SM BKN120=

USA.gov is the U.S. government's official web portal to all federal, state and local government web resources and services.